sensor_id;sensor_type;location;lat;lon;timestamp;P1;durP1;ratioP1;P2;durP2;ratioP2
26040;SDS011;13816;53.628;9.950;2023-12-29T00:00:46;20.73;;;3.37;;
26040;SDS011;13816;53.628;9.950;2023-12-29T00:07:09;13.07;;;3.23;;
26040;SDS011;13816;53.628;9.950;2023-12-29T00:10:21;14.67;;;3.07;;
26040;SDS011;13816;53.628;9.950;2023-12-29T00:13:52;10.80;;;2.73;;
26040;SDS011;13816;53.628;9.950;2023-12-29T00:21:04;13.60;;;3.33;;
26040;SDS011;13816;53.628;9.950;2023-12-29T00:23:33;10.20;;;2.73;;
26040;SDS011;13816;53.628;9.950;2023-12-29T00:26:00;13.00;;;2.90;;
26040;SDS011;13816;53.628;9.950;2023-12-29T00:34:38;10.33;;;2.80;;
26040;SDS011;13816;53.628;9.950;2023-12-29T00:37:06;10.33;;;2.60;;
26040;SDS011;13816;53.628;9.950;2023-12-29T00:39:35;11.03;;;2.70;;
26040;SDS011;13816;53.628;9.950;2023-12-29T00:42:26;12.07;;;3.20;;
26040;SDS011;13816;53.628;9.950;2023-12-29T00:44:53;21.03;;;2.83;;
26040;SDS011;13816;53.628;9.950;2023-12-29T00:47:23;11.37;;;3.47;;
26040;SDS011;13816;53.628;9.950;2023-12-29T00:50:23;9.70;;;3.10;;
26040;SDS011;13816;53.628;9.950;2023-12-29T00:53:01;17.20;;;3.40;;
26040;SDS011;13816;53.628;9.950;2023-12-29T00:55:37;15.40;;;3.23;;
26040;SDS011;13816;53.628;9.950;2023-12-29T00:58:11;14.43;;;3.13;;
26040;SDS011;13816;53.628;9.950;2023-12-29T01:00:59;11.90;;;3.20;;
26040;SDS011;13816;53.628;9.950;2023-12-29T01:03:59;18.03;;;4.80;;
26040;SDS011;13816;53.628;9.950;2023-12-29T01:06:40;10.07;;;3.10;;
26040;SDS011;13816;53.628;9.950;2023-12-29T01:09:12;9.70;;;2.63;;
26040;SDS011;13816;53.628;9.950;2023-12-29T01:11:54;15.00;;;3.67;;
26040;SDS011;13816;53.628;9.950;2023-12-29T01:14:36;21.90;;;4.17;;
26040;SDS011;13816;53.628;9.950;2023-12-29T01:17:03;12.80;;;3.37;;
26040;SDS011;13816;53.628;9.950;2023-12-29T01:19:30;13.87;;;3.40;;
26040;SDS011;13816;53.628;9.950;2023-12-29T01:22:37;9.47;;;2.20;;
26040;SDS011;13816;53.628;9.950;2023-12-29T01:25:05;9.03;;;2.40;;
26040;SDS011;13816;53.628;9.950;2023-12-29T01:27:33;13.27;;;3.20;;
26040;SDS011;13816;53.628;9.950;2023-12-29T01:30:00;16.90;;;3.67;;
26040;SDS011;13816;53.628;9.950;2023-12-29T01:32:27;17.70;;;3.63;;
26040;SDS011;13816;53.628;9.950;2023-12-29T01:34:54;17.40;;;3.63;;
26040;SDS011;13816;53.628;9.950;2023-12-29T01:37:22;14.20;;;3.40;;
26040;SDS011;13816;53.628;9.950;2023-12-29T01:39:49;10.27;;;3.40;;
26040;SDS011;13816;53.628;9.950;2023-12-29T01:42:16;13.60;;;3.17;;
26040;SDS011;13816;53.628;9.950;2023-12-29T01:44:43;15.27;;;4.03;;
26040;SDS011;13816;53.628;9.950;2023-12-29T01:47:12;8.47;;;2.80;;
26040;SDS011;13816;53.628;9.950;2023-12-29T01:49:45;14.63;;;2.97;;
26040;SDS011;13816;53.628;9.950;2023-12-29T01:52:14;7.33;;;2.83;;
26040;SDS011;13816;53.628;9.950;2023-12-29T01:54:44;9.80;;;2.60;;
26040;SDS011;13816;53.628;9.950;2023-12-29T01:57:13;14.20;;;2.50;;
26040;SDS011;13816;53.628;9.950;2023-12-29T01:59:41;12.43;;;2.70;;
26040;SDS011;13816;53.628;9.950;2023-12-29T02:02:10;11.07;;;2.70;;
26040;SDS011;13816;53.628;9.950;2023-12-29T02:04:37;12.00;;;2.60;;
26040;SDS011;13816;53.628;9.950;2023-12-29T02:07:06;15.37;;;3.00;;
26040;SDS011;13816;53.628;9.950;2023-12-29T02:09:34;18.63;;;4.33;;
26040;SDS011;13816;53.628;9.950;2023-12-29T02:12:01;20.23;;;3.00;;
26040;SDS011;13816;53.628;9.950;2023-12-29T02:14:29;14.10;;;3.07;;
26040;SDS011;13816;53.628;9.950;2023-12-29T02:16:58;11.30;;;3.17;;
26040;SDS011;13816;53.628;9.950;2023-12-29T02:19:42;13.67;;;2.70;;
26040;SDS011;13816;53.628;9.950;2023-12-29T02:22:11;8.90;;;2.20;;
26040;SDS011;13816;53.628;9.950;2023-12-29T02:24:39;15.90;;;3.40;;
26040;SDS011;13816;53.628;9.950;2023-12-29T02:30:20;8.10;;;2.27;;
26040;SDS011;13816;53.628;9.950;2023-12-29T02:32:49;9.87;;;2.77;;
26040;SDS011;13816;53.628;9.950;2023-12-29T02:35:21;7.53;;;2.50;;
26040;SDS011;13816;53.628;9.950;2023-12-29T02:37:50;8.43;;;2.33;;
26040;SDS011;13816;53.628;9.950;2023-12-29T02:40:17;12.47;;;2.67;;
26040;SDS011;13816;53.628;9.950;2023-12-29T02:42:45;8.67;;;2.50;;
26040;SDS011;13816;53.628;9.950;2023-12-29T02:45:16;14.67;;;2.43;;
26040;SDS011;13816;53.628;9.950;2023-12-29T02:47:44;9.27;;;2.53;;
26040;SDS011;13816;53.628;9.950;2023-12-29T02:50:12;7.77;;;2.57;;
26040;SDS011;13816;53.628;9.950;2023-12-29T02:52:39;12.10;;;3.53;;
26040;SDS011;13816;53.628;9.950;2023-12-29T02:55:06;18.90;;;2.50;;
26040;SDS011;13816;53.628;9.950;2023-12-29T02:57:34;6.47;;;2.97;;
26040;SDS011;13816;53.628;9.950;2023-12-29T03:00:02;12.03;;;2.80;;
26040;SDS011;13816;53.628;9.950;2023-12-29T03:02:30;8.57;;;2.40;;
26040;SDS011;13816;53.628;9.950;2023-12-29T03:04:57;12.83;;;2.63;;
26040;SDS011;13816;53.628;9.950;2023-12-29T03:07:25;11.00;;;2.60;;
26040;SDS011;13816;53.628;9.950;2023-12-29T03:09:52;8.10;;;2.20;;
26040;SDS011;13816;53.628;9.950;2023-12-29T03:12:19;14.13;;;2.53;;
26040;SDS011;13816;53.628;9.950;2023-12-29T03:14:46;4.13;;;2.17;;
26040;SDS011;13816;53.628;9.950;2023-12-29T03:17:13;11.03;;;2.30;;
26040;SDS011;13816;53.628;9.950;2023-12-29T03:19:41;6.97;;;2.33;;
26040;SDS011;13816;53.628;9.950;2023-12-29T03:22:08;9.17;;;2.80;;
26040;SDS011;13816;53.628;9.950;2023-12-29T03:24:36;5.10;;;1.77;;
26040;SDS011;13816;53.628;9.950;2023-12-29T03:27:03;6.67;;;2.00;;
26040;SDS011;13816;53.628;9.950;2023-12-29T03:29:31;9.33;;;1.97;;
26040;SDS011;13816;53.628;9.950;2023-12-29T03:31:58;9.10;;;2.27;;
26040;SDS011;13816;53.628;9.950;2023-12-29T03:34:25;6.33;;;1.90;;
26040;SDS011;13816;53.628;9.950;2023-12-29T03:36:52;10.70;;;2.63;;
26040;SDS011;13816;53.628;9.950;2023-12-29T03:39:19;7.40;;;1.73;;
26040;SDS011;13816;53.628;9.950;2023-12-29T03:41:46;3.33;;;1.63;;
26040;SDS011;13816;53.628;9.950;2023-12-29T03:44:13;9.07;;;1.87;;
26040;SDS011;13816;53.628;9.950;2023-12-29T03:46:41;9.20;;;2.63;;
26040;SDS011;13816;53.628;9.950;2023-12-29T03:49:08;5.90;;;1.73;;
26040;SDS011;13816;53.628;9.950;2023-12-29T03:51:35;8.33;;;1.73;;
26040;SDS011;13816;53.628;9.950;2023-12-29T03:54:02;6.80;;;2.30;;
26040;SDS011;13816;53.628;9.950;2023-12-29T03:56:30;5.40;;;1.67;;
26040;SDS011;13816;53.628;9.950;2023-12-29T03:58:57;4.80;;;1.53;;
26040;SDS011;13816;53.628;9.950;2023-12-29T04:01:24;5.60;;;1.60;;
26040;SDS011;13816;53.628;9.950;2023-12-29T04:03:52;7.67;;;1.50;;
26040;SDS011;13816;53.628;9.950;2023-12-29T04:06:19;8.17;;;2.83;;
26040;SDS011;13816;53.628;9.950;2023-12-29T04:08:47;7.60;;;1.80;;
26040;SDS011;13816;53.628;9.950;2023-12-29T04:11:14;5.40;;;2.10;;
26040;SDS011;13816;53.628;9.950;2023-12-29T04:13:41;8.70;;;2.10;;
26040;SDS011;13816;53.628;9.950;2023-12-29T04:16:08;8.93;;;1.93;;
26040;SDS011;13816;53.628;9.950;2023-12-29T04:18:35;9.80;;;1.60;;
26040;SDS011;13816;53.628;9.950;2023-12-29T04:21:02;2.30;;;1.10;;
26040;SDS011;13816;53.628;9.950;2023-12-29T04:23:30;3.73;;;1.53;;
26040;SDS011;13816;53.628;9.950;2023-12-29T04:25:57;2.90;;;1.03;;
26040;SDS011;13816;53.628;9.950;2023-12-29T04:28:24;5.00;;;1.60;;
26040;SDS011;13816;53.628;9.950;2023-12-29T04:30:53;4.03;;;1.40;;
26040;SDS011;13816;53.628;9.950;2023-12-29T04:33:20;4.23;;;1.20;;
26040;SDS011;13816;53.628;9.950;2023-12-29T04:35:49;4.93;;;1.30;;
26040;SDS011;13816;53.628;9.950;2023-12-29T04:38:16;5.60;;;1.47;;
26040;SDS011;13816;53.628;9.950;2023-12-29T04:40:45;9.60;;;1.50;;
26040;SDS011;13816;53.628;9.950;2023-12-29T04:43:13;3.53;;;1.20;;
26040;SDS011;13816;53.628;9.950;2023-12-29T04:45:40;2.57;;;1.10;;
26040;SDS011;13816;53.628;9.950;2023-12-29T04:48:07;6.30;;;1.00;;
26040;SDS011;13816;53.628;9.950;2023-12-29T04:50:34;4.53;;;1.23;;
26040;SDS011;13816;53.628;9.950;2023-12-29T04:53:01;4.60;;;1.30;;
26040;SDS011;13816;53.628;9.950;2023-12-29T04:55:28;4.10;;;1.40;;
26040;SDS011;13816;53.628;9.950;2023-12-29T04:57:55;6.13;;;1.73;;
26040;SDS011;13816;53.628;9.950;2023-12-29T05:00:23;5.77;;;0.97;;
26040;SDS011;13816;53.628;9.950;2023-12-29T05:02:50;1.40;;;0.83;;
26040;SDS011;13816;53.628;9.950;2023-12-29T05:05:17;7.63;;;1.60;;
26040;SDS011;13816;53.628;9.950;2023-12-29T05:07:44;4.43;;;1.20;;
26040;SDS011;13816;53.628;9.950;2023-12-29T05:10:11;13.37;;;1.90;;
26040;SDS011;13816;53.628;9.950;2023-12-29T05:12:38;7.00;;;1.70;;
26040;SDS011;13816;53.628;9.950;2023-12-29T05:15:05;5.77;;;1.50;;
26040;SDS011;13816;53.628;9.950;2023-12-29T05:17:33;2.00;;;1.03;;
26040;SDS011;13816;53.628;9.950;2023-12-29T05:20:00;10.37;;;1.70;;
26040;SDS011;13816;53.628;9.950;2023-12-29T05:22:27;7.13;;;1.33;;
26040;SDS011;13816;53.628;9.950;2023-12-29T05:24:54;6.47;;;1.83;;
26040;SDS011;13816;53.628;9.950;2023-12-29T05:27:26;6.50;;;1.73;;
26040;SDS011;13816;53.628;9.950;2023-12-29T05:29:53;7.80;;;2.23;;
26040;SDS011;13816;53.628;9.950;2023-12-29T05:32:20;9.37;;;2.17;;
26040;SDS011;13816;53.628;9.950;2023-12-29T05:34:47;6.33;;;1.73;;
26040;SDS011;13816;53.628;9.950;2023-12-29T05:37:14;7.37;;;1.67;;
26040;SDS011;13816;53.628;9.950;2023-12-29T05:39:42;9.70;;;2.10;;
26040;SDS011;13816;53.628;9.950;2023-12-29T05:42:09;6.70;;;2.03;;
26040;SDS011;13816;53.628;9.950;2023-12-29T05:44:36;3.93;;;1.67;;
26040;SDS011;13816;53.628;9.950;2023-12-29T05:47:04;6.23;;;1.87;;
26040;SDS011;13816;53.628;9.950;2023-12-29T05:49:32;10.00;;;1.87;;
26040;SDS011;13816;53.628;9.950;2023-12-29T05:52:05;3.80;;;1.50;;
26040;SDS011;13816;53.628;9.950;2023-12-29T05:54:33;5.27;;;2.03;;
26040;SDS011;13816;53.628;9.950;2023-12-29T05:57:01;7.73;;;2.10;;
26040;SDS011;13816;53.628;9.950;2023-12-29T05:59:28;10.00;;;1.43;;
26040;SDS011;13816;53.628;9.950;2023-12-29T06:01:55;7.60;;;1.50;;
26040;SDS011;13816;53.628;9.950;2023-12-29T06:04:23;8.67;;;1.90;;
26040;SDS011;13816;53.628;9.950;2023-12-29T06:06:50;7.20;;;2.37;;
26040;SDS011;13816;53.628;9.950;2023-12-29T06:09:17;6.87;;;1.57;;
26040;SDS011;13816;53.628;9.950;2023-12-29T06:11:44;6.47;;;1.70;;
26040;SDS011;13816;53.628;9.950;2023-12-29T06:14:12;4.83;;;2.00;;
26040;SDS011;13816;53.628;9.950;2023-12-29T06:16:39;4.17;;;1.37;;
26040;SDS011;13816;53.628;9.950;2023-12-29T06:19:07;5.97;;;2.10;;
26040;SDS011;13816;53.628;9.950;2023-12-29T06:21:42;9.43;;;2.27;;
26040;SDS011;13816;53.628;9.950;2023-12-29T06:24:10;11.43;;;2.30;;
26040;SDS011;13816;53.628;9.950;2023-12-29T06:26:41;8.63;;;2.30;;
26040;SDS011;13816;53.628;9.950;2023-12-29T06:29:10;9.50;;;1.93;;
26040;SDS011;13816;53.628;9.950;2023-12-29T06:31:40;6.27;;;1.90;;
26040;SDS011;13816;53.628;9.950;2023-12-29T06:34:09;14.27;;;2.30;;
26040;SDS011;13816;53.628;9.950;2023-12-29T06:36:36;8.80;;;2.20;;
26040;SDS011;13816;53.628;9.950;2023-12-29T06:39:03;6.37;;;2.30;;
26040;SDS011;13816;53.628;9.950;2023-12-29T06:41:31;3.73;;;2.10;;
26040;SDS011;13816;53.628;9.950;2023-12-29T06:43:58;13.80;;;2.87;;
26040;SDS011;13816;53.628;9.950;2023-12-29T06:46:25;5.30;;;2.20;;
26040;SDS011;13816;53.628;9.950;2023-12-29T06:48:52;5.33;;;1.97;;
26040;SDS011;13816;53.628;9.950;2023-12-29T06:51:20;12.50;;;3.07;;
26040;SDS011;13816;53.628;9.950;2023-12-29T06:53:49;6.50;;;2.07;;
26040;SDS011;13816;53.628;9.950;2023-12-29T06:56:16;7.57;;;2.00;;
26040;SDS011;13816;53.628;9.950;2023-12-29T06:58:44;7.93;;;2.97;;
26040;SDS011;13816;53.628;9.950;2023-12-29T07:01:12;15.90;;;2.80;;
26040;SDS011;13816;53.628;9.950;2023-12-29T07:03:40;9.67;;;2.63;;
26040;SDS011;13816;53.628;9.950;2023-12-29T07:06:07;9.00;;;2.47;;
26040;SDS011;13816;53.628;9.950;2023-12-29T07:08:35;11.40;;;2.50;;
26040;SDS011;13816;53.628;9.950;2023-12-29T07:11:03;20.63;;;3.30;;
26040;SDS011;13816;53.628;9.950;2023-12-29T07:13:30;24.47;;;2.90;;
26040;SDS011;13816;53.628;9.950;2023-12-29T07:15:57;14.00;;;3.40;;
26040;SDS011;13816;53.628;9.950;2023-12-29T07:18:24;15.30;;;2.80;;
26040;SDS011;13816;53.628;9.950;2023-12-29T07:20:51;15.27;;;2.47;;
26040;SDS011;13816;53.628;9.950;2023-12-29T07:23:18;13.07;;;2.77;;
26040;SDS011;13816;53.628;9.950;2023-12-29T07:25:45;13.83;;;2.90;;
26040;SDS011;13816;53.628;9.950;2023-12-29T07:28:13;12.80;;;2.60;;
26040;SDS011;13816;53.628;9.950;2023-12-29T07:30:41;13.90;;;3.00;;
26040;SDS011;13816;53.628;9.950;2023-12-29T07:33:08;20.10;;;3.20;;
26040;SDS011;13816;53.628;9.950;2023-12-29T07:35:35;18.93;;;3.43;;
26040;SDS011;13816;53.628;9.950;2023-12-29T07:38:02;13.70;;;3.40;;
26040;SDS011;13816;53.628;9.950;2023-12-29T07:40:29;10.07;;;2.50;;
26040;SDS011;13816;53.628;9.950;2023-12-29T07:42:57;16.13;;;3.43;;
26040;SDS011;13816;53.628;9.950;2023-12-29T07:45:24;19.70;;;3.90;;
26040;SDS011;13816;53.628;9.950;2023-12-29T07:47:51;15.37;;;3.00;;
26040;SDS011;13816;53.628;9.950;2023-12-29T07:50:18;15.20;;;4.63;;
26040;SDS011;13816;53.628;9.950;2023-12-29T07:52:45;17.90;;;3.57;;
26040;SDS011;13816;53.628;9.950;2023-12-29T07:55:12;19.97;;;4.03;;
26040;SDS011;13816;53.628;9.950;2023-12-29T07:57:42;15.10;;;4.20;;
26040;SDS011;13816;53.628;9.950;2023-12-29T08:00:10;13.17;;;2.90;;
26040;SDS011;13816;53.628;9.950;2023-12-29T08:02:40;20.60;;;3.90;;
26040;SDS011;13816;53.628;9.950;2023-12-29T08:05:07;22.33;;;4.03;;
26040;SDS011;13816;53.628;9.950;2023-12-29T08:07:37;13.77;;;3.13;;
26040;SDS011;13816;53.628;9.950;2023-12-29T08:10:04;24.37;;;4.37;;
26040;SDS011;13816;53.628;9.950;2023-12-29T08:12:32;10.77;;;3.13;;
26040;SDS011;13816;53.628;9.950;2023-12-29T08:15:00;12.00;;;3.23;;
26040;SDS011;13816;53.628;9.950;2023-12-29T08:17:29;17.63;;;3.77;;
26040;SDS011;13816;53.628;9.950;2023-12-29T08:19:57;17.13;;;4.00;;
26040;SDS011;13816;53.628;9.950;2023-12-29T08:22:24;17.77;;;3.70;;
26040;SDS011;13816;53.628;9.950;2023-12-29T08:24:55;18.97;;;4.07;;
26040;SDS011;13816;53.628;9.950;2023-12-29T08:27:22;17.83;;;3.73;;
26040;SDS011;13816;53.628;9.950;2023-12-29T08:29:51;16.93;;;3.50;;
26040;SDS011;13816;53.628;9.950;2023-12-29T08:32:18;18.20;;;5.10;;
26040;SDS011;13816;53.628;9.950;2023-12-29T08:34:46;25.30;;;3.37;;
26040;SDS011;13816;53.628;9.950;2023-12-29T08:37:13;25.23;;;4.23;;
26040;SDS011;13816;53.628;9.950;2023-12-29T08:39:46;17.63;;;3.50;;
26040;SDS011;13816;53.628;9.950;2023-12-29T08:42:14;14.10;;;3.50;;
26040;SDS011;13816;53.628;9.950;2023-12-29T08:44:41;15.10;;;3.50;;
26040;SDS011;13816;53.628;9.950;2023-12-29T08:55:44;17.97;;;2.70;;
26040;SDS011;13816;53.628;9.950;2023-12-29T08:58:54;12.60;;;2.87;;
26040;SDS011;13816;53.628;9.950;2023-12-29T09:07:34;16.97;;;2.83;;
26040;SDS011;13816;53.628;9.950;2023-12-29T09:18:19;7.17;;;1.70;;
26040;SDS011;13816;53.628;9.950;2023-12-29T09:21:35;10.40;;;1.93;;
26040;SDS011;13816;53.628;9.950;2023-12-29T09:25:12;8.63;;;1.77;;
26040;SDS011;13816;53.628;9.950;2023-12-29T09:28:04;4.67;;;1.70;;
26040;SDS011;13816;53.628;9.950;2023-12-29T09:31:02;9.67;;;1.90;;
26040;SDS011;13816;53.628;9.950;2023-12-29T09:52:25;9.40;;;2.00;;
26040;SDS011;13816;53.628;9.950;2023-12-29T10:24:16;12.40;;;3.50;;
26040;SDS011;13816;53.628;9.950;2023-12-29T11:19:54;14.37;;;3.07;;
26040;SDS011;13816;53.628;9.950;2023-12-29T12:13:54;13.73;;;3.00;;
26040;SDS011;13816;53.628;9.950;2023-12-29T12:21:17;9.47;;;2.60;;
26040;SDS011;13816;53.628;9.950;2023-12-29T12:24:19;14.67;;;3.17;;
26040;SDS011;13816;53.628;9.950;2023-12-29T12:27:09;10.10;;;2.53;;
26040;SDS011;13816;53.628;9.950;2023-12-29T12:31:30;13.10;;;3.00;;
26040;SDS011;13816;53.628;9.950;2023-12-29T12:34:41;8.40;;;2.40;;
26040;SDS011;13816;53.628;9.950;2023-12-29T12:38:13;11.20;;;2.23;;
26040;SDS011;13816;53.628;9.950;2023-12-29T12:41:25;16.67;;;2.43;;
26040;SDS011;13816;53.628;9.950;2023-12-29T12:44:28;16.43;;;2.43;;
26040;SDS011;13816;53.628;9.950;2023-12-29T12:48:13;7.27;;;2.13;;
26040;SDS011;13816;53.628;9.950;2023-12-29T12:51:01;19.00;;;3.17;;
26040;SDS011;13816;53.628;9.950;2023-12-29T12:53:30;14.50;;;3.40;;
26040;SDS011;13816;53.628;9.950;2023-12-29T12:56:07;21.43;;;2.83;;
26040;SDS011;13816;53.628;9.950;2023-12-29T12:58:38;20.80;;;3.07;;
26040;SDS011;13816;53.628;9.950;2023-12-29T13:01:06;11.10;;;2.97;;
26040;SDS011;13816;53.628;9.950;2023-12-29T13:03:36;7.03;;;1.90;;
26040;SDS011;13816;53.628;9.950;2023-12-29T13:06:11;15.17;;;2.67;;
26040;SDS011;13816;53.628;9.950;2023-12-29T13:08:42;12.30;;;2.57;;
26040;SDS011;13816;53.628;9.950;2023-12-29T13:11:12;9.80;;;2.40;;
26040;SDS011;13816;53.628;9.950;2023-12-29T13:13:56;6.27;;;2.03;;
26040;SDS011;13816;53.628;9.950;2023-12-29T13:17:28;7.63;;;2.17;;
26040;SDS011;13816;53.628;9.950;2023-12-29T13:20:05;6.97;;;2.00;;
26040;SDS011;13816;53.628;9.950;2023-12-29T13:23:24;9.10;;;2.37;;
26040;SDS011;13816;53.628;9.950;2023-12-29T13:26:04;8.57;;;1.77;;
26040;SDS011;13816;53.628;9.950;2023-12-29T13:31:38;5.97;;;1.93;;
26040;SDS011;13816;53.628;9.950;2023-12-29T13:34:11;12.87;;;2.33;;
26040;SDS011;13816;53.628;9.950;2023-12-29T13:36:50;9.40;;;2.17;;
26040;SDS011;13816;53.628;9.950;2023-12-29T13:42:14;12.27;;;2.20;;
26040;SDS011;13816;53.628;9.950;2023-12-29T13:44:54;18.07;;;2.60;;
26040;SDS011;13816;53.628;9.950;2023-12-29T13:47:29;16.80;;;3.37;;
26040;SDS011;13816;53.628;9.950;2023-12-29T13:50:10;12.87;;;3.00;;
26040;SDS011;13816;53.628;9.950;2023-12-29T13:53:02;13.90;;;3.80;;
26040;SDS011;13816;53.628;9.950;2023-12-29T14:04:30;12.07;;;3.40;;
26040;SDS011;13816;53.628;9.950;2023-12-29T14:07:27;14.90;;;3.57;;
26040;SDS011;13816;53.628;9.950;2023-12-29T14:10:23;17.00;;;2.87;;
26040;SDS011;13816;53.628;9.950;2023-12-29T14:17:27;14.23;;;3.67;;
26040;SDS011;13816;53.628;9.950;2023-12-29T14:26:26;19.47;;;4.40;;
26040;SDS011;13816;53.628;9.950;2023-12-29T14:34:49;14.77;;;4.53;;
26040;SDS011;13816;53.628;9.950;2023-12-29T14:38:47;19.40;;;6.27;;
26040;SDS011;13816;53.628;9.950;2023-12-29T14:56:07;16.13;;;2.67;;
26040;SDS011;13816;53.628;9.950;2023-12-29T15:08:12;13.07;;;2.83;;
26040;SDS011;13816;53.628;9.950;2023-12-29T15:10:39;14.53;;;2.60;;
26040;SDS011;13816;53.628;9.950;2023-12-29T15:13:07;17.20;;;3.50;;
26040;SDS011;13816;53.628;9.950;2023-12-29T15:15:34;12.77;;;2.70;;
26040;SDS011;13816;53.628;9.950;2023-12-29T15:18:01;15.10;;;3.00;;
26040;SDS011;13816;53.628;9.950;2023-12-29T15:20:29;11.87;;;3.37;;
26040;SDS011;13816;53.628;9.950;2023-12-29T15:22:56;8.40;;;2.20;;
26040;SDS011;13816;53.628;9.950;2023-12-29T15:25:25;15.70;;;2.83;;
26040;SDS011;13816;53.628;9.950;2023-12-29T15:27:53;12.93;;;3.77;;
26040;SDS011;13816;53.628;9.950;2023-12-29T15:30:20;14.73;;;2.70;;
26040;SDS011;13816;53.628;9.950;2023-12-29T15:32:48;13.23;;;3.00;;
26040;SDS011;13816;53.628;9.950;2023-12-29T15:35:15;12.23;;;2.67;;
26040;SDS011;13816;53.628;9.950;2023-12-29T15:37:42;15.43;;;2.73;;
26040;SDS011;13816;53.628;9.950;2023-12-29T15:40:10;12.83;;;2.97;;
26040;SDS011;13816;53.628;9.950;2023-12-29T15:42:37;13.73;;;3.73;;
26040;SDS011;13816;53.628;9.950;2023-12-29T15:45:04;16.47;;;3.40;;
26040;SDS011;13816;53.628;9.950;2023-12-29T15:47:32;18.60;;;3.47;;
26040;SDS011;13816;53.628;9.950;2023-12-29T15:49:59;18.63;;;3.60;;
26040;SDS011;13816;53.628;9.950;2023-12-29T15:52:26;15.27;;;3.33;;
26040;SDS011;13816;53.628;9.950;2023-12-29T15:54:54;18.87;;;3.03;;
26040;SDS011;13816;53.628;9.950;2023-12-29T15:57:21;20.57;;;3.40;;
26040;SDS011;13816;53.628;9.950;2023-12-29T15:59:49;12.75;;;3.70;;
26040;SDS011;13816;53.628;9.950;2023-12-29T16:02:16;21.30;;;5.50;;
26040;SDS011;13816;53.628;9.950;2023-12-29T16:04:43;14.80;;;3.80;;
26040;SDS011;13816;53.628;9.950;2023-12-29T16:07:11;16.80;;;3.73;;
26040;SDS011;13816;53.628;9.950;2023-12-29T16:09:38;17.13;;;4.17;;
26040;SDS011;13816;53.628;9.950;2023-12-29T16:12:07;16.73;;;3.50;;
26040;SDS011;13816;53.628;9.950;2023-12-29T16:14:34;12.60;;;2.70;;
26040;SDS011;13816;53.628;9.950;2023-12-29T16:17:04;17.37;;;3.37;;
26040;SDS011;13816;53.628;9.950;2023-12-29T16:19:31;12.47;;;3.23;;
26040;SDS011;13816;53.628;9.950;2023-12-29T16:21:58;12.50;;;2.87;;
26040;SDS011;13816;53.628;9.950;2023-12-29T16:24:25;21.37;;;2.97;;
26040;SDS011;13816;53.628;9.950;2023-12-29T16:26:53;13.90;;;2.80;;
26040;SDS011;13816;53.628;9.950;2023-12-29T16:29:21;20.43;;;3.50;;
26040;SDS011;13816;53.628;9.950;2023-12-29T16:31:48;17.10;;;3.97;;
26040;SDS011;13816;53.628;9.950;2023-12-29T16:34:15;17.20;;;4.17;;
26040;SDS011;13816;53.628;9.950;2023-12-29T16:36:45;16.65;;;3.80;;
26040;SDS011;13816;53.628;9.950;2023-12-29T16:39:23;17.13;;;4.00;;
26040;SDS011;13816;53.628;9.950;2023-12-29T16:41:50;12.70;;;3.20;;
26040;SDS011;13816;53.628;9.950;2023-12-29T16:44:18;10.83;;;2.43;;
26040;SDS011;13816;53.628;9.950;2023-12-29T16:46:45;23.10;;;4.43;;
26040;SDS011;13816;53.628;9.950;2023-12-29T16:49:12;12.27;;;3.57;;
26040;SDS011;13816;53.628;9.950;2023-12-29T16:51:40;10.17;;;3.10;;
26040;SDS011;13816;53.628;9.950;2023-12-29T16:54:09;9.57;;;2.67;;
26040;SDS011;13816;53.628;9.950;2023-12-29T16:56:36;18.63;;;3.50;;
26040;SDS011;13816;53.628;9.950;2023-12-29T16:59:04;18.27;;;4.70;;
26040;SDS011;13816;53.628;9.950;2023-12-29T17:01:32;18.43;;;3.67;;
26040;SDS011;13816;53.628;9.950;2023-12-29T17:03:59;14.00;;;3.37;;
26040;SDS011;13816;53.628;9.950;2023-12-29T17:06:27;10.83;;;2.33;;
26040;SDS011;13816;53.628;9.950;2023-12-29T17:08:54;18.27;;;3.43;;
26040;SDS011;13816;53.628;9.950;2023-12-29T17:11:21;21.50;;;3.73;;
26040;SDS011;13816;53.628;9.950;2023-12-29T17:13:48;19.97;;;3.67;;
26040;SDS011;13816;53.628;9.950;2023-12-29T17:16:15;18.80;;;4.40;;
26040;SDS011;13816;53.628;9.950;2023-12-29T17:18:48;20.60;;;3.10;;
26040;SDS011;13816;53.628;9.950;2023-12-29T17:21:23;12.70;;;2.90;;
26040;SDS011;13816;53.628;9.950;2023-12-29T17:24:00;15.47;;;3.27;;
26040;SDS011;13816;53.628;9.950;2023-12-29T17:26:27;14.60;;;3.60;;
26040;SDS011;13816;53.628;9.950;2023-12-29T17:28:54;15.80;;;2.70;;
26040;SDS011;13816;53.628;9.950;2023-12-29T17:31:27;12.43;;;3.03;;
26040;SDS011;13816;53.628;9.950;2023-12-29T17:33:57;14.70;;;3.10;;
26040;SDS011;13816;53.628;9.950;2023-12-29T17:36:30;16.20;;;3.00;;
26040;SDS011;13816;53.628;9.950;2023-12-29T17:39:04;13.40;;;3.30;;
26040;SDS011;13816;53.628;9.950;2023-12-29T17:41:36;14.47;;;3.40;;
26040;SDS011;13816;53.628;9.950;2023-12-29T17:44:10;13.27;;;3.23;;
26040;SDS011;13816;53.628;9.950;2023-12-29T17:46:37;14.73;;;3.50;;
26040;SDS011;13816;53.628;9.950;2023-12-29T17:49:05;11.40;;;3.30;;
26040;SDS011;13816;53.628;9.950;2023-12-29T17:51:34;20.23;;;4.20;;
26040;SDS011;13816;53.628;9.950;2023-12-29T17:54:02;13.87;;;3.27;;
26040;SDS011;13816;53.628;9.950;2023-12-29T17:56:29;18.03;;;3.97;;
26040;SDS011;13816;53.628;9.950;2023-12-29T17:58:57;18.20;;;3.30;;
26040;SDS011;13816;53.628;9.950;2023-12-29T18:01:24;20.67;;;4.60;;
26040;SDS011;13816;53.628;9.950;2023-12-29T18:04:01;14.47;;;3.40;;
26040;SDS011;13816;53.628;9.950;2023-12-29T18:06:39;14.23;;;3.50;;
26040;SDS011;13816;53.628;9.950;2023-12-29T18:09:15;8.40;;;2.40;;
26040;SDS011;13816;53.628;9.950;2023-12-29T18:11:57;9.67;;;2.50;;
26040;SDS011;13816;53.628;9.950;2023-12-29T18:14:42;17.33;;;2.70;;
26040;SDS011;13816;53.628;9.950;2023-12-29T18:17:19;9.10;;;2.87;;
26040;SDS011;13816;53.628;9.950;2023-12-29T18:20:02;11.30;;;2.90;;
26040;SDS011;13816;53.628;9.950;2023-12-29T18:22:34;8.97;;;2.10;;
26040;SDS011;13816;53.628;9.950;2023-12-29T18:25:14;10.40;;;2.87;;
26040;SDS011;13816;53.628;9.950;2023-12-29T18:27:52;17.03;;;3.07;;
26040;SDS011;13816;53.628;9.950;2023-12-29T18:30:20;14.33;;;3.10;;
26040;SDS011;13816;53.628;9.950;2023-12-29T18:32:54;14.30;;;3.33;;
26040;SDS011;13816;53.628;9.950;2023-12-29T18:35:41;20.63;;;4.50;;
26040;SDS011;13816;53.628;9.950;2023-12-29T18:38:29;11.37;;;2.80;;
26040;SDS011;13816;53.628;9.950;2023-12-29T18:40:56;12.67;;;4.43;;
26040;SDS011;13816;53.628;9.950;2023-12-29T18:43:23;16.07;;;3.53;;
26040;SDS011;13816;53.628;9.950;2023-12-29T18:45:51;13.70;;;3.27;;
26040;SDS011;13816;53.628;9.950;2023-12-29T18:48:19;17.50;;;2.77;;
26040;SDS011;13816;53.628;9.950;2023-12-29T18:50:50;10.80;;;3.50;;
26040;SDS011;13816;53.628;9.950;2023-12-29T18:53:17;18.67;;;3.40;;
26040;SDS011;13816;53.628;9.950;2023-12-29T18:55:44;17.43;;;4.80;;
26040;SDS011;13816;53.628;9.950;2023-12-29T18:58:12;15.00;;;3.33;;
26040;SDS011;13816;53.628;9.950;2023-12-29T19:00:39;14.60;;;3.17;;
26040;SDS011;13816;53.628;9.950;2023-12-29T19:03:08;12.60;;;3.07;;
26040;SDS011;13816;53.628;9.950;2023-12-29T19:05:35;16.67;;;3.50;;
26040;SDS011;13816;53.628;9.950;2023-12-29T19:08:02;13.33;;;3.53;;
26040;SDS011;13816;53.628;9.950;2023-12-29T19:10:30;13.20;;;2.90;;
26040;SDS011;13816;53.628;9.950;2023-12-29T19:13:00;21.87;;;4.13;;
26040;SDS011;13816;53.628;9.950;2023-12-29T19:15:28;24.90;;;4.03;;
26040;SDS011;13816;53.628;9.950;2023-12-29T19:17:55;20.63;;;3.60;;
26040;SDS011;13816;53.628;9.950;2023-12-29T19:20:24;19.80;;;3.93;;
26040;SDS011;13816;53.628;9.950;2023-12-29T19:22:52;10.73;;;3.00;;